Trident Challenger — V7TY7 — position and weather

sailwx.info

Track history (hours):
 
Tides and Currents Weather Stations Pressure Air Temp Water Temp Dewpoint Dewpoint Depression Visibility Wind Speed Wind Dir Waves Ship Positions

Trident Challenger

Last reported at 2014-Jul-22 03:33 UTC. Time now 2014-Jul-24 00:16 UTC.
Position N 32°56' E 013°11'.

Length 189 m; draft 10.2 m.

Type: Cargo ship. MMSI: 538003908.

Date/timePositionNaut miles runAvg speedWind from/ knotsBaromVisibWave heightAir tempDewpointWater temp
2014-Jul-22 03:33N 32°56' E 013°11'0 0.0
2014-Jul-22 02:33N 32°56' E 013°11'0 0.0
2014-Jul-22 01:33N 32°56' E 013°11'0 0.0
2014-Jul-21 23:33N 32°56' E 013°11'0 0.1
2014-Jul-21 22:33N 32°56' E 013°11'0 0.0
2014-Jul-21 21:30N 32°56' E 013°11'0 0.0
2014-Jul-21 20:30N 32°56' E 013°11'0 0.0
2014-Jul-21 20:15N 32°56' E 013°11'0 0.0
2014-Jul-21 19:33N 32°56' E 013°11'0 0.0
2014-Jul-21 18:33N 32°56' E 013°11'0 0.0
2014-Jul-21 17:27N 32°56' E 013°11'0 0.0
2014-Jul-21 16:33N 32°56' E 013°11'0 0.0
2014-Jul-21 15:21N 32°56' E 013°11'0 0.0
2014-Jul-21 14:33N 32°56' E 013°11'0 0.0
2014-Jul-21 12:24N 32°56' E 013°11'0 0.0
2014-Jul-21 11:33N 32°56' E 013°11'0 0.0
2014-Jul-21 10:33N 32°56' E 013°11'0 0.0
2014-Jul-21 09:30N 32°56' E 013°11'0 0.0
2014-Jul-21 08:33N 32°56' E 013°11'0 0.0
2014-Jul-20 23:06N 32°56' E 013°11'0 0.0
2014-Jul-20 21:27N 32°56' E 013°11'0 0.0
2014-Jul-20 19:06N 32°56' E 013°11'0 0.0
2014-Jul-20 18:33N 32°56' E 013°11'0 0.0
2014-Jul-20 17:33N 32°56' E 013°11'0 0.0
2014-Jul-20 16:33N 32°56' E 013°11'0 0.0
2014-Jul-20 15:33N 32°56' E 013°11'0 0.1
2014-Jul-20 14:33N 32°56' E 013°11'0 0.1
2014-Jul-20 13:33N 32°56' E 013°11'0 0.0
2014-Jul-20 12:33N 32°56' E 013°11'0 0.0
2014-Jul-20 11:27N 32°56' E 013°11'0 0.0
2014-Jul-20 00:18N 32°56' E 013°11'0 0.0
2014-Jul-19 23:33N 32°56' E 013°11'0 0.0
2014-Jul-19 22:33N 32°56' E 013°11'0 0.0
2014-Jul-19 17:33N 32°56' E 013°11'0 0.0
2014-Jul-19 15:09N 32°56' E 013°11'0 0.0
2014-Jul-19 14:33N 32°56' E 013°11'0 0.0
2014-Jul-18 21:30N 32°56' E 013°11'0 0.0
2014-Jul-18 16:06N 32°56' E 013°11'0 0.0
2014-Jul-18 15:27N 32°56' E 013°11'0 0.0
2014-Jul-18 14:33N 32°56' E 013°11'  
2014-Jul-16 08:33N 37°20' E 004°11'1212.3
2014-Jul-16 07:33N 37°20' E 003°56'1312.4
2014-Jul-16 06:32N 37°17' E 003°40'1312.8
2014-Jul-16 05:33N 37°15' E 003°24'1312.6
2014-Jul-16 04:33N 37°12' E 003°09'1312.5
2014-Jul-16 03:32N 37°10' E 002°53'1212.6
2014-Jul-16 02:33N 37°07' E 002°38'1312.8
2014-Jul-16 01:33N 37°05' E 002°22'1312.6
2014-Jul-16 00:34N 37°02' E 002°07'1212.2
2014-Jul-15 23:33N 37°00' E 001°52'2411.7
2014-Jul-15 21:30N 36°56' E 001°23'3612.0
2014-Jul-15 18:32N 36°48' E 000°39'1212.2
2014-Jul-15 17:33N 36°46' E 000°24'1311.8
2014-Jul-15 16:25N 36°44' E 000°08'1112.0
2014-Jul-15 15:31N 36°42' W 000°05'1212.0
2014-Jul-15 14:29N 36°39' W 000°20'1112.1
2014-Jul-15 13:33N 36°37' W 000°34'1212.0
2014-Jul-15 12:33N 36°35' W 000°49'1212.0
2014-Jul-15 11:33N 36°32' W 001°04'1212.1
2014-Jul-15 10:33N 36°30' W 001°18'1212.0
2014-Jul-15 09:33N 36°28' W 001°33'1411.5
2014-Jul-15 08:19N 36°25' W 001°50'1211.5
2014-Jul-15 07:17N 36°23' W 002°04'911.9
2014-Jul-15 06:32N 36°21' W 002°16'1411.5
2014-Jul-15 05:20N 36°19' W 002°33'13113.3
2014-Jul-14 19:26N 36°01' W 005°14'1416.0
2014-Jul-14 18:33N 35°57' W 005°30'4213.8
2014-Jul-14 15:33N 35°37' W 006°15'1312.9
2014-Jul-14 14:33N 35°28' W 006°26'1312.6
2014-Jul-14 13:33N 35°19' W 006°38'1212.3
2014-Jul-14 12:33N 35°10' W 006°48'1212.5
2014-Jul-14 11:33N 35°01' W 006°59'8012.6
2014-Jul-14 05:10N 34°04' W 008°07'3612.0
2014-Jul-14 02:12N 33°39' W 008°38'811.7
2014-Jul-14 01:33N 33°34' W 008°44'1211.7
2014-Jul-14 00:33N 33°25' W 008°54'1111.6
2014-Jul-13 23:33N 33°17' W 009°04'3911.5
2014-Jul-13 20:10N 32°50' W 009°37'711.1
2014-Jul-13 19:33N 32°45' W 009°42'1111.1
2014-Jul-13 18:33N 32°37' W 009°52'1111.1
2014-Jul-13 17:33N 32°29' W 010°01'1111.2
2014-Jul-13 16:33N 32°20' W 010°08'2411.5
2014-Jul-13 14:28N 31°60' W 010°24'  
Track history (hours):
 
Tides and Currents Weather Stations Pressure Air Temp Water Temp Dewpoint Dewpoint Depression Visibility Wind Speed Wind Dir Waves Ship Positions

Trident Challenger

Last reported at 2014-Jul-22 03:33 UTC. Time now 2014-Jul-24 00:16 UTC.
Position N 32°56' E 013°11'.

Length 189 m; draft 10.2 m.

Type: Cargo ship. MMSI: 538003908.

Date/timePositionNaut miles runAvg speedWind from/ knotsBaromVisibWave heightAir tempDewpointWater temp
2014-Jul-22 03:33N 32°56' E 013°11'0 0.0
2014-Jul-22 02:33N 32°56' E 013°11'0 0.0
2014-Jul-22 01:33N 32°56' E 013°11'0 0.0
2014-Jul-21 23:33N 32°56' E 013°11'0 0.1
2014-Jul-21 22:33N 32°56' E 013°11'0 0.0
2014-Jul-21 21:30N 32°56' E 013°11'0 0.0
2014-Jul-21 20:30N 32°56' E 013°11'0 0.0
2014-Jul-21 20:15N 32°56' E 013°11'0 0.0
2014-Jul-21 19:33N 32°56' E 013°11'0 0.0
2014-Jul-21 18:33N 32°56' E 013°11'0 0.0
2014-Jul-21 17:27N 32°56' E 013°11'0 0.0
2014-Jul-21 16:33N 32°56' E 013°11'0 0.0
2014-Jul-21 15:21N 32°56' E 013°11'0 0.0
2014-Jul-21 14:33N 32°56' E 013°11'0 0.0
2014-Jul-21 12:24N 32°56' E 013°11'0 0.0
2014-Jul-21 11:33N 32°56' E 013°11'0 0.0
2014-Jul-21 10:33N 32°56' E 013°11'0 0.0
2014-Jul-21 09:30N 32°56' E 013°11'0 0.0
2014-Jul-21 08:33N 32°56' E 013°11'0 0.0
2014-Jul-20 23:06N 32°56' E 013°11'0 0.0
2014-Jul-20 21:27N 32°56' E 013°11'0 0.0
2014-Jul-20 19:06N 32°56' E 013°11'0 0.0
2014-Jul-20 18:33N 32°56' E 013°11'0 0.0
2014-Jul-20 17:33N 32°56' E 013°11'0 0.0
2014-Jul-20 16:33N 32°56' E 013°11'0 0.0
2014-Jul-20 15:33N 32°56' E 013°11'0 0.1
2014-Jul-20 14:33N 32°56' E 013°11'0 0.1
2014-Jul-20 13:33N 32°56' E 013°11'0 0.0
2014-Jul-20 12:33N 32°56' E 013°11'0 0.0
2014-Jul-20 11:27N 32°56' E 013°11'0 0.0
2014-Jul-20 00:18N 32°56' E 013°11'0 0.0
2014-Jul-19 23:33N 32°56' E 013°11'0 0.0
2014-Jul-19 22:33N 32°56' E 013°11'0 0.0
2014-Jul-19 17:33N 32°56' E 013°11'0 0.0
2014-Jul-19 15:09N 32°56' E 013°11'0 0.0
2014-Jul-19 14:33N 32°56' E 013°11'0 0.0
2014-Jul-18 21:30N 32°56' E 013°11'0 0.0
2014-Jul-18 16:06N 32°56' E 013°11'0 0.0
2014-Jul-18 15:27N 32°56' E 013°11'0 0.0
2014-Jul-18 14:33N 32°56' E 013°11'  
2014-Jul-16 08:33N 37°20' E 004°11'1212.3
2014-Jul-16 07:33N 37°20' E 003°56'1312.4
2014-Jul-16 06:32N 37°17' E 003°40'1312.8
2014-Jul-16 05:33N 37°15' E 003°24'1312.6
2014-Jul-16 04:33N 37°12' E 003°09'1312.5
2014-Jul-16 03:32N 37°10' E 002°53'1212.6
2014-Jul-16 02:33N 37°07' E 002°38'1312.8
2014-Jul-16 01:33N 37°05' E 002°22'1312.6
2014-Jul-16 00:34N 37°02' E 002°07'1212.2
2014-Jul-15 23:33N 37°00' E 001°52'2411.7
2014-Jul-15 21:30N 36°56' E 001°23'3612.0
2014-Jul-15 18:32N 36°48' E 000°39'1212.2
2014-Jul-15 17:33N 36°46' E 000°24'1311.8
2014-Jul-15 16:25N 36°44' E 000°08'1112.0
2014-Jul-15 15:31N 36°42' W 000°05'1212.0
2014-Jul-15 14:29N 36°39' W 000°20'1112.1
2014-Jul-15 13:33N 36°37' W 000°34'1212.0
2014-Jul-15 12:33N 36°35' W 000°49'1212.0
2014-Jul-15 11:33N 36°32' W 001°04'1212.1
2014-Jul-15 10:33N 36°30' W 001°18'1212.0
2014-Jul-15 09:33N 36°28' W 001°33'1411.5
2014-Jul-15 08:19N 36°25' W 001°50'1211.5
2014-Jul-15 07:17N 36°23' W 002°04'911.9
2014-Jul-15 06:32N 36°21' W 002°16'1411.5
2014-Jul-15 05:20N 36°19' W 002°33'13113.3
2014-Jul-14 19:26N 36°01' W 005°14'1416.0
2014-Jul-14 18:33N 35°57' W 005°30'4213.8
2014-Jul-14 15:33N 35°37' W 006°15'1312.9
2014-Jul-14 14:33N 35°28' W 006°26'1312.6
2014-Jul-14 13:33N 35°19' W 006°38'1212.3
2014-Jul-14 12:33N 35°10' W 006°48'1212.5
2014-Jul-14 11:33N 35°01' W 006°59'8012.6
2014-Jul-14 05:10N 34°04' W 008°07'3612.0
2014-Jul-14 02:12N 33°39' W 008°38'811.7
2014-Jul-14 01:33N 33°34' W 008°44'1211.7
2014-Jul-14 00:33N 33°25' W 008°54'1111.6
2014-Jul-13 23:33N 33°17' W 009°04'3911.5
2014-Jul-13 20:10N 32°50' W 009°37'711.1
2014-Jul-13 19:33N 32°45' W 009°42'1111.1
2014-Jul-13 18:33N 32°37' W 009°52'1111.1
2014-Jul-13 17:33N 32°29' W 010°01'1111.2
2014-Jul-13 16:33N 32°20' W 010°08'2411.5
2014-Jul-13 14:28N 31°60' W 010°24'  

Dump ship's entire track history